createdAt,value
2018-01-04T00:00:41.464Z,6.70
2018-01-04T00:03:07.656Z,6.80
2018-01-04T00:05:34.572Z,6.80
2018-01-04T00:08:00.780Z,6.80
2018-01-04T00:10:27.189Z,6.80
2018-01-04T00:12:54.194Z,6.80
2018-01-04T00:15:20.561Z,6.80
2018-01-04T00:17:46.993Z,6.80
2018-01-04T00:20:13.184Z,6.70
2018-01-04T00:22:39.380Z,6.70
2018-01-04T00:25:05.650Z,6.70
2018-01-04T00:27:31.858Z,6.70
2018-01-04T00:29:58.112Z,6.60
2018-01-04T00:32:24.349Z,6.60
2018-01-04T00:34:50.628Z,6.60
2018-01-04T00:37:17.601Z,6.50
2018-01-04T00:39:44.609Z,6.50
2018-01-04T00:42:10.900Z,6.50
2018-01-04T00:44:37.869Z,6.50
2018-01-04T00:47:04.072Z,6.50
2018-01-04T00:49:30.363Z,6.50
2018-01-04T00:51:56.568Z,6.50
2018-01-04T00:54:22.760Z,6.50
2018-01-04T00:56:49.047Z,6.50
2018-01-04T00:59:16.319Z,6.50
2018-01-04T01:01:42.522Z,6.50
2018-01-04T01:04:08.737Z,6.50
2018-01-04T01:06:34.920Z,6.50
2018-01-04T01:09:01.136Z,6.40
2018-01-04T01:11:27.377Z,6.40
2018-01-04T01:13:53.767Z,6.40
2018-01-04T01:16:19.992Z,6.40
2018-01-04T01:18:46.222Z,6.40
2018-01-04T01:21:12.448Z,6.30
2018-01-04T01:23:38.645Z,6.30
2018-01-04T01:26:05.604Z,6.30
2018-01-04T01:28:32.572Z,6.30
2018-01-04T01:30:58.798Z,6.30
2018-01-04T01:33:24.995Z,6.30
2018-01-04T01:35:51.335Z,6.30
2018-01-04T01:38:17.555Z,6.30
2018-01-04T01:40:43.747Z,6.30
2018-01-04T01:43:10.297Z,6.30
2018-01-04T01:45:36.492Z,6.30
2018-01-04T01:48:02.716Z,6.30
2018-01-04T01:50:29.131Z,6.30
2018-01-04T01:52:56.134Z,6.40
2018-01-04T01:55:22.676Z,6.40
2018-01-04T01:57:48.904Z,6.40
2018-01-04T02:00:15.201Z,6.40
2018-01-04T02:02:41.421Z,6.40
2018-01-04T02:05:07.645Z,6.40
2018-01-04T02:07:33.997Z,6.50
2018-01-04T02:10:00.209Z,6.50
2018-01-04T02:12:26.498Z,6.50
2018-01-04T02:14:53.031Z,6.50
2018-01-04T02:17:19.228Z,6.50
2018-01-04T02:23:06.286Z,6.50
2018-01-04T02:25:45.319Z,6.40
2018-01-04T02:28:23.917Z,6.40
2018-01-04T02:31:02.493Z,6.40
2018-01-04T02:33:41.789Z,6.50
2018-01-04T02:36:20.251Z,6.50
2018-01-04T02:38:51.383Z,6.50
2018-01-04T02:41:30.772Z,6.40
2018-01-04T02:43:59.676Z,6.50
2018-01-04T02:46:26.733Z,6.50
2018-01-04T02:48:52.912Z,6.50
2018-01-04T02:51:19.625Z,6.40
2018-01-04T02:53:45.789Z,6.40
2018-01-04T02:56:12.007Z,6.40
2018-01-04T02:58:38.954Z,6.30
2018-01-04T03:01:05.206Z,6.30
2018-01-04T03:03:31.390Z,6.30
2018-01-04T03:05:57.607Z,6.30
2018-01-04T03:08:24.737Z,6.20
2018-01-04T03:10:51.704Z,6.20
2018-01-04T03:13:18.017Z,6.20
2018-01-04T03:15:45.289Z,6.20
2018-01-04T03:18:11.569Z,6.30
2018-01-04T03:20:38.533Z,6.20
2018-01-04T03:23:11.612Z,6.30
2018-01-04T03:25:43.954Z,6.30
2018-01-04T03:28:16.164Z,6.30
2018-01-04T03:30:49.053Z,6.30
2018-01-04T03:33:21.406Z,6.40
2018-01-04T03:35:53.777Z,6.30
2018-01-04T03:38:26.868Z,6.40
2018-01-04T03:40:59.904Z,6.40
2018-01-04T03:43:32.220Z,6.40
2018-01-04T03:46:04.517Z,6.40
2018-01-04T03:48:30.940Z,6.40
2018-01-04T03:54:15.477Z,6.40
2018-01-04T03:56:47.711Z,6.40
2018-01-04T03:59:20.784Z,6.40
2018-01-04T04:01:53.560Z,6.40
2018-01-04T04:07:27.403Z,6.40
2018-01-04T04:09:53.632Z,6.40
2018-01-04T04:12:19.881Z,6.40
2018-01-04T04:14:46.113Z,6.30
2018-01-04T04:17:12.377Z,6.40
2018-01-04T04:19:38.636Z,6.40
2018-01-04T04:22:05.677Z,6.40
2018-01-04T04:24:31.984Z,6.40
2018-01-04T04:26:58.208Z,6.40
2018-01-04T04:29:24.492Z,6.40
2018-01-04T04:31:50.686Z,6.40
2018-01-04T04:34:16.983Z,6.30
2018-01-04T04:36:43.260Z,6.30
2018-01-04T04:39:09.455Z,6.30
2018-01-04T04:41:35.656Z,6.30
2018-01-04T04:44:01.961Z,6.30
2018-01-04T04:46:28.988Z,6.20
2018-01-04T04:48:55.201Z,6.20
2018-01-04T04:51:21.840Z,6.20
2018-01-04T04:53:48.040Z,6.20
2018-01-04T04:56:15.013Z,6.20
2018-01-04T04:58:41.943Z,6.20
2018-01-04T05:01:08.343Z,6.20
2018-01-04T05:03:34.526Z,6.20
2018-01-04T05:06:00.947Z,6.20
2018-01-04T05:08:27.331Z,6.10
2018-01-04T05:10:54.411Z,6.10
2018-01-04T05:13:21.356Z,6.00
2018-01-04T05:15:47.548Z,6.10
2018-01-04T05:18:15.398Z,6.10
2018-01-04T05:20:42.477Z,6.10
2018-01-04T05:23:08.684Z,6.10
2018-01-04T05:25:35.604Z,6.10
2018-01-04T05:28:02.221Z,6.10
2018-01-04T05:30:28.428Z,6.10
2018-01-04T05:32:55.356Z,6.20
2018-01-04T05:35:21.883Z,6.10
2018-01-04T05:37:48.156Z,6.10
2018-01-04T05:40:14.368Z,6.20
2018-01-04T05:42:40.590Z,6.20
2018-01-04T05:45:06.932Z,6.30
2018-01-04T05:47:33.204Z,6.20
2018-01-04T05:49:59.400Z,6.30
2018-01-04T05:52:25.684Z,6.30
2018-01-04T05:54:51.896Z,6.30
2018-01-04T05:57:18.120Z,6.30
2018-01-04T05:59:45.281Z,6.30
2018-01-04T06:02:12.074Z,6.30
2018-01-04T06:04:38.257Z,6.30
2018-01-04T06:07:04.583Z,6.30
2018-01-04T06:09:31.064Z,6.30
2018-01-04T06:11:57.996Z,6.30
2018-01-04T06:14:24.216Z,6.30
2018-01-04T06:16:50.605Z,6.30
2018-01-04T06:19:17.549Z,6.40
2018-01-04T06:21:43.732Z,6.40
2018-01-04T06:24:09.905Z,6.40
2018-01-04T06:26:36.202Z,6.40
2018-01-04T06:29:02.506Z,6.40
2018-01-04T06:31:28.733Z,6.40
2018-01-04T06:33:54.988Z,6.40
2018-01-04T06:36:21.172Z,6.50
2018-01-04T06:38:47.352Z,6.50
2018-01-04T06:41:13.610Z,6.50
2018-01-04T06:43:39.808Z,6.50
2018-01-04T06:46:06.023Z,6.60
2018-01-04T06:48:33.173Z,6.60
2018-01-04T06:51:00.127Z,6.60
2018-01-04T06:53:26.288Z,6.60
2018-01-04T06:55:52.865Z,6.60
2018-01-04T06:58:19.283Z,6.60
2018-01-04T07:00:45.447Z,6.60
2018-01-04T07:03:11.644Z,6.60
2018-01-04T07:05:38.879Z,6.60
2018-01-04T07:08:05.090Z,6.60
2018-01-04T07:10:31.383Z,6.60
2018-01-04T07:12:58.184Z,6.60
2018-01-04T07:15:24.384Z,6.60
2018-01-04T07:17:50.592Z,6.50
2018-01-04T07:20:16.801Z,6.50
2018-01-04T07:22:43.004Z,6.50
2018-01-04T07:25:09.202Z,6.50
2018-01-04T07:27:35.396Z,6.40
2018-01-04T07:30:02.652Z,6.40
2018-01-04T07:32:29.608Z,6.40
2018-01-04T07:34:55.808Z,6.40
2018-01-04T07:37:21.998Z,6.40
2018-01-04T07:39:48.207Z,6.40
2018-01-04T07:42:14.389Z,6.40
2018-01-04T07:44:40.616Z,6.50
2018-01-04T07:47:06.810Z,6.50
2018-01-04T07:49:32.992Z,6.50
2018-01-04T07:52:00.015Z,6.50
2018-01-04T07:54:26.188Z,6.50
2018-01-04T07:56:53.132Z,6.60
2018-01-04T07:59:19.310Z,6.60
2018-01-04T08:01:45.560Z,6.60
2018-01-04T08:04:11.744Z,6.60
2018-01-04T08:06:37.936Z,6.60
2018-01-04T08:09:04.228Z,6.70
2018-01-04T08:11:30.429Z,6.70
2018-01-04T08:13:56.583Z,6.70
2018-01-04T08:16:22.861Z,6.70
2018-01-04T08:18:49.106Z,6.70
2018-01-04T08:21:15.302Z,6.70
2018-01-04T08:23:41.606Z,6.70
2018-01-04T08:26:08.606Z,6.80
2018-01-04T08:28:34.825Z,6.80
2018-01-04T08:31:01.125Z,6.80
2018-01-04T08:33:27.343Z,6.80
2018-01-04T08:35:53.698Z,6.90
2018-01-04T08:38:19.951Z,6.90
2018-01-04T08:40:46.137Z,6.90
2018-01-04T08:43:12.340Z,6.90
2018-01-04T08:45:38.713Z,6.90
2018-01-04T08:48:04.957Z,6.90
2018-01-04T08:50:31.133Z,6.90
2018-01-04T08:52:57.404Z,6.80
2018-01-04T08:55:23.584Z,6.80
2018-01-04T08:57:49.796Z,6.80
2018-01-04T09:00:16.732Z,6.80
2018-01-04T09:02:42.980Z,6.80
2018-01-04T09:05:09.247Z,6.70
2018-01-04T09:07:36.196Z,6.70
2018-01-04T09:10:03.245Z,6.60
2018-01-04T09:12:29.440Z,6.60
2018-01-04T09:14:55.635Z,6.60
2018-01-04T09:17:21.988Z,6.70
2018-01-04T09:19:48.979Z,6.60
2018-01-04T09:22:15.142Z,6.60
2018-01-04T09:24:41.311Z,6.70
2018-01-04T09:27:07.472Z,6.70
2018-01-04T09:29:34.408Z,6.60
2018-01-04T09:32:00.585Z,6.60
2018-01-04T09:34:26.820Z,6.60
2018-01-04T09:36:53.006Z,6.70
2018-01-04T09:39:19.172Z,6.60
2018-01-04T09:41:45.540Z,6.70
2018-01-04T09:44:12.884Z,6.70
2018-01-04T09:46:39.053Z,6.60
2018-01-04T09:49:05.319Z,6.70
2018-01-04T09:51:31.499Z,6.70
2018-01-04T09:53:57.659Z,6.60
2018-01-04T09:56:24.643Z,6.70
2018-01-04T09:58:50.885Z,6.70
2018-01-04T10:01:17.072Z,6.70
2018-01-04T10:03:43.293Z,6.60
2018-01-04T10:06:09.541Z,6.70
2018-01-04T10:08:35.750Z,6.80
2018-01-04T10:11:01.917Z,6.70
2018-01-04T10:13:28.128Z,6.80
2018-01-04T10:15:54.463Z,6.80
2018-01-04T10:18:20.716Z,6.80
2018-01-04T10:20:46.934Z,6.80
2018-01-04T10:23:13.128Z,6.80
2018-01-04T10:25:39.292Z,6.80
2018-01-04T10:28:05.604Z,6.80
2018-01-04T10:30:31.790Z,6.90
2018-01-04T10:32:58.679Z,6.80
2018-01-04T10:35:25.011Z,6.80
2018-01-04T10:37:51.266Z,6.90
2018-01-04T10:40:17.485Z,6.90
2018-01-04T10:42:43.704Z,6.90
2018-01-04T10:45:09.920Z,6.90
2018-01-04T10:47:36.087Z,6.90
2018-01-04T10:50:02.425Z,7.00
2018-01-04T10:52:28.571Z,6.90
2018-01-04T10:54:55.526Z,7.00
2018-01-04T10:57:22.451Z,7.00
2018-01-04T10:59:48.626Z,7.00
2018-01-04T11:02:14.828Z,7.00
2018-01-04T11:04:40.990Z,7.00
2018-01-04T11:07:07.267Z,7.10
2018-01-04T11:09:33.476Z,7.10
2018-01-04T11:11:59.645Z,7.10
2018-01-04T11:14:25.960Z,7.20
2018-01-04T11:16:52.216Z,7.10
2018-01-04T11:19:19.130Z,7.20
2018-01-04T11:21:45.554Z,7.20
2018-01-04T11:24:11.780Z,7.20
2018-01-04T11:26:38.331Z,7.20
2018-01-04T11:29:04.547Z,7.20
2018-01-04T11:31:30.729Z,7.20
2018-01-04T11:33:56.930Z,7.30
2018-01-04T11:36:23.868Z,7.30
2018-01-04T11:38:50.083Z,7.30
2018-01-04T11:41:16.336Z,7.30
2018-01-04T11:43:42.561Z,7.30
2018-01-04T11:46:08.765Z,7.30
2018-01-04T11:48:34.979Z,7.30
2018-01-04T11:51:01.908Z,7.30
2018-01-04T11:53:28.316Z,7.30
2018-01-04T11:55:54.610Z,7.40
2018-01-04T11:58:21.097Z,7.40
2018-01-04T12:00:47.466Z,7.40
2018-01-04T12:03:13.779Z,7.40
2018-01-04T12:05:40.073Z,7.40
2018-01-04T12:08:06.424Z,7.50
2018-01-04T12:10:32.682Z,7.50
2018-01-04T12:12:58.937Z,7.50
2018-01-04T12:15:25.325Z,7.50
2018-01-04T12:17:51.584Z,7.60
2018-01-04T12:20:17.865Z,7.60
2018-01-04T12:22:44.142Z,7.60
2018-01-04T12:25:10.380Z,7.60
2018-01-04T12:27:36.552Z,7.60
2018-01-04T12:30:02.801Z,7.60
2018-01-04T12:32:28.969Z,7.60
2018-01-04T12:34:55.947Z,7.70
2018-01-04T12:37:22.104Z,7.70
2018-01-04T12:39:48.371Z,7.70
2018-01-04T12:42:14.551Z,7.70
2018-01-04T12:44:40.720Z,7.70
2018-01-04T12:47:06.989Z,7.70
2018-01-04T12:49:33.143Z,7.70
2018-01-04T12:51:59.367Z,7.70
2018-01-04T12:54:25.664Z,7.70
2018-01-04T12:56:51.849Z,7.70
2018-01-04T12:59:18.025Z,7.70
2018-01-04T13:01:44.234Z,7.70
2018-01-04T13:04:10.402Z,7.70
2018-01-04T13:06:36.580Z,7.70
2018-01-04T13:09:02.808Z,7.70
2018-01-04T13:11:28.975Z,7.70
2018-01-04T13:13:55.482Z,7.70
2018-01-04T13:16:22.646Z,7.70
2018-01-04T13:18:49.588Z,7.80
2018-01-04T13:21:15.743Z,7.80
2018-01-04T13:23:42.718Z,7.80
2018-01-04T13:26:08.849Z,7.80
2018-01-04T13:28:35.980Z,7.80
2018-01-04T13:31:02.156Z,7.80
2018-01-04T13:33:29.214Z,7.80
2018-01-04T13:35:56.120Z,7.80
2018-01-04T13:38:23.132Z,7.80
2018-01-04T13:40:49.293Z,7.80
2018-01-04T13:43:15.681Z,7.80
2018-01-04T13:45:41.848Z,7.80
2018-01-04T13:48:08.021Z,7.80
2018-01-04T13:50:34.542Z,7.80
2018-01-04T13:53:00.741Z,7.80
2018-01-04T13:55:26.918Z,7.80
2018-01-04T13:57:53.233Z,7.80
2018-01-04T14:00:19.408Z,7.80
2018-01-04T14:02:45.552Z,7.70
2018-01-04T14:05:12.038Z,7.80
2018-01-04T14:07:38.195Z,7.80
2018-01-04T14:10:04.392Z,7.80
2018-01-04T14:12:30.720Z,7.70
2018-01-04T14:14:56.897Z,7.80
2018-01-04T14:17:23.140Z,7.80
2018-01-04T14:19:49.441Z,7.80
2018-01-04T14:22:15.636Z,7.70
2018-01-04T14:24:41.828Z,7.80
2018-01-04T14:27:08.213Z,7.90
2018-01-04T14:29:34.412Z,7.80
2018-01-04T14:32:00.608Z,7.80
2018-01-04T14:34:26.843Z,7.80
2018-01-04T14:36:53.052Z,7.90
2018-01-04T14:39:19.236Z,7.90
2018-01-04T14:41:45.455Z,7.80
2018-01-04T14:44:11.645Z,7.90
2018-01-04T14:46:37.839Z,7.90
2018-01-04T14:49:05.060Z,7.90
2018-01-04T14:51:31.382Z,7.90
2018-01-04T14:53:57.612Z,7.90
2018-01-04T14:56:23.788Z,7.90
2018-01-04T14:58:50.153Z,7.90
2018-01-04T15:01:16.339Z,8.00
2018-01-04T15:03:42.540Z,8.00
2018-01-04T15:06:08.760Z,8.00
2018-01-04T15:08:34.950Z,8.00
2018-01-04T15:11:01.197Z,8.10
2018-01-04T15:13:27.519Z,8.10
2018-01-04T15:15:53.724Z,8.10
2018-01-04T15:18:19.964Z,8.10
2018-01-04T15:20:48.160Z,8.10
2018-01-04T15:23:14.549Z,8.10
2018-01-04T15:25:40.783Z,8.20
2018-01-04T15:28:07.009Z,8.20
2018-01-04T15:30:33.488Z,8.20
2018-01-04T15:32:59.696Z,8.20
2018-01-04T15:35:25.913Z,8.20
2018-01-04T15:37:52.263Z,8.30
2018-01-04T15:40:18.457Z,8.30
2018-01-04T15:42:45.381Z,8.30
2018-01-04T15:45:11.800Z,8.30
2018-01-04T15:47:38.036Z,8.40
2018-01-04T15:50:06.080Z,8.40
2018-01-04T15:52:32.292Z,8.40
2018-01-04T15:54:58.551Z,8.40
2018-01-04T15:57:24.751Z,8.40
2018-01-04T15:59:51.677Z,8.40
2018-01-04T16:02:17.920Z,8.40
2018-01-04T16:04:44.976Z,8.50
2018-01-04T16:07:11.955Z,8.50
2018-01-04T16:09:38.136Z,8.50
2018-01-04T16:12:04.481Z,8.50
2018-01-04T16:14:30.664Z,8.50
2018-01-04T16:16:56.842Z,8.50
2018-01-04T16:19:23.120Z,8.50
2018-01-04T16:21:49.289Z,8.50
2018-01-04T16:24:15.506Z,8.50
2018-01-04T16:26:42.516Z,8.60
2018-01-04T16:29:09.741Z,8.60
2018-01-04T16:31:36.676Z,8.60
2018-01-04T16:34:02.876Z,8.60
2018-01-04T16:36:29.172Z,8.70
2018-01-04T16:38:55.368Z,8.70
2018-01-04T16:41:21.508Z,8.70
2018-01-04T16:43:47.872Z,8.70
2018-01-04T16:46:14.091Z,8.70
2018-01-04T16:48:40.292Z,8.80
2018-01-04T16:51:07.288Z,8.80
2018-01-04T16:53:33.580Z,8.80
2018-01-04T16:55:59.751Z,8.80
2018-01-04T16:58:25.933Z,8.90
2018-01-04T17:00:52.209Z,8.90
2018-01-04T17:03:18.471Z,8.90
2018-01-04T17:05:44.659Z,8.90
2018-01-04T17:08:10.919Z,9.00
2018-01-04T17:10:37.167Z,9.00
2018-01-04T17:13:04.112Z,9.10
2018-01-04T17:15:30.369Z,9.10
2018-01-04T17:17:56.652Z,9.10
2018-01-04T17:20:22.841Z,9.20
2018-01-04T17:22:49.171Z,9.20
2018-01-04T17:25:15.400Z,9.20
2018-01-04T17:27:41.611Z,9.20
2018-01-04T17:30:07.845Z,9.20
2018-01-04T17:32:34.041Z,9.30
2018-01-04T17:35:00.259Z,9.30
2018-01-04T17:37:26.447Z,9.40
2018-01-04T17:39:52.673Z,9.40
2018-01-04T17:42:18.864Z,9.50
2018-01-04T17:44:45.143Z,9.50
2018-01-04T17:47:11.328Z,9.50
2018-01-04T17:49:37.496Z,9.60
2018-01-04T17:52:03.885Z,9.60
2018-01-04T17:54:30.039Z,9.70
2018-01-04T17:56:56.953Z,9.70
2018-01-04T17:59:23.386Z,9.70
2018-01-04T18:01:49.556Z,9.70
2018-01-04T18:04:15.750Z,9.80
2018-01-04T18:06:41.973Z,9.80
2018-01-04T18:09:08.157Z,9.90
2018-01-04T18:11:34.418Z,9.90
2018-01-04T18:14:00.615Z,10.00
2018-01-04T18:16:26.835Z,10.00
2018-01-04T18:18:53.058Z,10.00
2018-01-04T18:21:19.975Z,10.10
2018-01-04T18:23:46.516Z,10.00
2018-01-04T18:26:12.680Z,10.10
2018-01-04T18:28:38.876Z,10.10
2018-01-04T18:31:05.199Z,10.10
2018-01-04T18:33:32.191Z,10.20
2018-01-04T18:35:58.393Z,10.10
2018-01-04T18:38:25.416Z,10.20
2018-01-04T18:40:51.770Z,10.20
2018-01-04T18:43:17.968Z,10.20
2018-01-04T18:45:44.154Z,10.20
2018-01-04T18:48:11.108Z,10.30
2018-01-04T18:50:38.101Z,10.30
2018-01-04T18:53:04.317Z,10.30
2018-01-04T18:55:31.279Z,10.30
2018-01-04T18:57:57.832Z,10.30
2018-01-04T19:00:24.783Z,10.40
2018-01-04T19:02:50.945Z,10.40
2018-01-04T19:05:17.201Z,10.40
2018-01-04T19:07:43.386Z,10.40
2018-01-04T19:10:09.565Z,10.40
2018-01-04T19:12:36.556Z,10.40
2018-01-04T19:15:02.774Z,10.40
2018-01-04T19:17:29.302Z,10.40
2018-01-04T19:19:57.524Z,10.50
2018-01-04T19:22:23.787Z,10.50
2018-01-04T19:24:51.044Z,10.50
2018-01-04T19:27:17.284Z,10.60
2018-01-04T19:29:43.481Z,10.60
2018-01-04T19:32:11.192Z,10.60
2018-01-04T19:34:37.421Z,10.60
2018-01-04T19:37:03.687Z,10.60
2018-01-04T19:39:30.217Z,10.60
2018-01-04T19:41:56.523Z,10.60
2018-01-04T19:44:23.483Z,10.50
2018-01-04T19:46:50.485Z,10.40
2018-01-04T19:49:16.817Z,10.40
2018-01-04T19:51:43.120Z,10.40
2018-01-04T19:54:10.168Z,10.30
2018-01-04T19:56:36.396Z,10.30
2018-01-04T19:59:02.952Z,10.20
2018-01-04T20:01:29.154Z,10.20
2018-01-04T20:03:55.622Z,10.20
2018-01-04T20:06:22.201Z,10.10
2018-01-04T20:08:48.546Z,10.10
2018-01-04T20:11:14.789Z,10.10
2018-01-04T20:13:41.256Z,10.10
2018-01-04T20:16:08.499Z,10.00
2018-01-04T20:18:34.712Z,10.00
2018-01-04T20:21:00.963Z,10.00
2018-01-04T20:23:27.242Z,9.90
2018-01-04T20:25:54.256Z,9.80
2018-01-04T20:28:20.459Z,9.80
2018-01-04T20:30:46.767Z,9.90
2018-01-04T20:33:12.950Z,9.80
2018-01-04T20:35:39.128Z,9.80
2018-01-04T20:38:05.469Z,9.80
2018-01-04T20:40:31.674Z,9.90
2018-01-04T20:42:57.916Z,9.90
2018-01-04T20:45:24.161Z,9.90
2018-01-04T20:47:50.452Z,9.90
2018-01-04T20:50:16.660Z,9.90
2018-01-04T20:52:42.938Z,9.80
2018-01-04T20:55:09.326Z,9.80
2018-01-04T20:57:35.581Z,9.80
2018-01-04T21:00:01.924Z,9.80
2018-01-04T21:02:28.219Z,9.70
2018-01-04T21:04:54.493Z,9.70
2018-01-04T21:07:20.816Z,9.70
2018-01-04T21:09:47.837Z,9.70
2018-01-04T21:12:15.153Z,9.70
2018-01-04T21:14:41.361Z,9.70
2018-01-04T21:17:08.332Z,9.70
2018-01-04T21:19:35.421Z,9.80
2018-01-04T21:22:01.626Z,9.80
2018-01-04T21:24:28.690Z,9.80
2018-01-04T21:26:55.085Z,9.90
2018-01-04T21:29:21.353Z,9.80
2018-01-04T21:31:47.571Z,9.80
2018-01-04T21:34:14.836Z,9.80
2018-01-04T21:36:41.186Z,9.80
2018-01-04T21:39:07.374Z,9.80
2018-01-04T21:41:33.620Z,9.80
2018-01-04T21:44:00.127Z,9.80
2018-01-04T21:46:26.365Z,9.70
2018-01-04T21:48:52.826Z,9.70
2018-01-04T21:51:19.168Z,9.60
2018-01-04T21:53:45.533Z,9.60
2018-01-04T21:56:12.555Z,9.60
2018-01-04T21:58:38.808Z,9.60
2018-01-04T22:01:05.150Z,9.50
2018-01-04T22:03:31.623Z,9.60
2018-01-04T22:05:58.644Z,9.50
2018-01-04T22:08:25.045Z,9.50
2018-01-04T22:10:51.318Z,9.40
2018-01-04T22:13:17.618Z,9.40
2018-01-04T22:15:44.095Z,9.30
2018-01-04T22:18:10.537Z,9.30
2018-01-04T22:20:37.849Z,9.30
2018-01-04T22:23:04.127Z,9.20
2018-01-04T22:25:30.653Z,9.20
2018-01-04T22:27:56.895Z,9.30
2018-01-04T22:30:23.352Z,9.20
2018-01-04T22:32:50.381Z,9.10
2018-01-04T22:35:16.574Z,9.10
2018-01-04T22:37:42.897Z,9.10
2018-01-04T22:40:09.370Z,9.10
2018-01-04T22:42:35.677Z,9.10
2018-01-04T22:45:01.940Z,9.00
2018-01-04T22:47:28.397Z,9.00
2018-01-04T22:49:54.857Z,9.00
2018-01-04T22:52:21.107Z,9.10
2018-01-04T22:54:47.356Z,9.00
2018-01-04T22:57:14.802Z,9.00
2018-01-04T22:59:41.110Z,9.00
2018-01-04T23:02:08.036Z,8.90
2018-01-04T23:04:35.821Z,8.90
2018-01-04T23:07:02.879Z,8.90
2018-01-04T23:09:30.368Z,8.90
2018-01-04T23:11:56.701Z,8.90
2018-01-04T23:14:22.933Z,8.90
2018-01-04T23:16:49.220Z,8.90
2018-01-04T23:19:16.387Z,8.90
2018-01-04T23:21:42.694Z,8.90
2018-01-04T23:24:08.900Z,8.90
2018-01-04T23:29:08.022Z,8.90
2018-01-04T23:31:36.244Z,8.90
2018-01-04T23:34:03.548Z,8.80
2018-01-04T23:36:30.588Z,8.80
2018-01-04T23:38:57.177Z,8.70
2018-01-04T23:41:23.402Z,8.80
2018-01-04T23:43:50.467Z,8.70
2018-01-04T23:46:17.569Z,8.70
2018-01-04T23:48:43.858Z,8.70
2018-01-04T23:51:10.114Z,8.60
2018-01-04T23:53:36.425Z,8.60
2018-01-04T23:56:02.732Z,8.60
2018-01-04T23:58:29.989Z,8.50
